createdAt,value
2022-10-11T00:03:08.688Z,16.16
2022-10-11T00:32:20.513Z,16
2022-10-11T01:01:24.284Z,16
2022-10-11T01:30:29.793Z,16.1
2022-10-11T01:59:41.302Z,16.22
2022-10-11T02:28:53.098Z,16.37
2022-10-11T02:57:54.481Z,15.87
2022-10-11T03:27:04.091Z,15.87
2022-10-11T03:56:17.644Z,16.1
2022-10-11T04:25:28.036Z,15.92
2022-10-11T04:54:31.833Z,15.68
2022-10-11T05:23:39.067Z,15.23
2022-10-11T05:52:45.760Z,14.88
2022-10-11T06:21:52.398Z,14.51
2022-10-11T06:51:01.035Z,14.52
2022-10-11T07:19:41.422Z,14.83
2022-10-11T07:48:54.314Z,15.42
2022-10-11T08:18:07.076Z,15.76
2022-10-11T08:47:14.521Z,15.83
2022-10-11T09:16:22.780Z,15.57
2022-10-11T09:45:33.236Z,15.74
2022-10-11T10:14:48.822Z,16.09
2022-10-11T10:44:04.060Z,17.33
2022-10-11T11:13:16.509Z,18.22
2022-10-11T11:42:25.653Z,18.01
2022-10-11T12:11:40.764Z,18.66
2022-10-11T12:40:52.511Z,18.54
2022-10-11T13:10:04.552Z,18.59
2022-10-11T13:39:17.262Z,18.96
2022-10-11T14:08:26.227Z,18.46
2022-10-11T14:37:38.496Z,18.43
2022-10-11T15:06:46.763Z,18.34
2022-10-11T15:35:53.527Z,18.28
2022-10-11T16:04:54.395Z,18.07
2022-10-11T16:34:03.305Z,17.89
2022-10-11T17:03:09.067Z,17.64
2022-10-11T17:32:17.575Z,17.39
2022-10-11T18:01:20.013Z,16.92
2022-10-11T18:30:09.514Z,16.71
2022-10-11T18:59:07.773Z,16.28
2022-10-11T19:28:05.650Z,15.76
2022-10-11T19:57:10.669Z,15.36
2022-10-11T20:26:15.914Z,14.9
2022-10-11T20:55:09.163Z,14.52
2022-10-11T21:24:00.842Z,14.3
2022-10-11T21:53:06.297Z,14.17
2022-10-11T22:22:06.090Z,13.87
2022-10-11T22:51:08.937Z,13.56
2022-10-11T23:20:04.640Z,13.37
2022-10-11T23:49:06.580Z,13.05
